Time;durP1;ratioP1;P1;durP2;ratioP2;P2;SDS_P1;SDS_P2;PMS_P1;PMS_P2;Temp;Humidity;BMP_temperature;BMP_pressure;BME280_temperature;BME280_humidity;BME280_pressure;Samples;Min_cycle;Max_cycle;Signal;HPM_P1;HPM_P2
2022/11/16 00:02:12;;;;;;;40.83;17.70;;;;;;;5.19;95.85;99821.21;1757847;81;25715;-48
2022/11/16 00:04:40;;;;;;;40.10;18.17;;;;;;;5.18;95.80;99810.22;1757858;81;26140;-48
2022/11/16 00:07:07;;;;;;;40.70;17.57;;;;;;;5.20;95.83;99812.62;1757285;81;25570;-48
2022/11/16 00:09:33;;;;;;;38.05;17.82;;;;;;;5.19;95.81;99803.78;1727172;83;27344;-48
2022/11/16 00:12:05;;;;;;;35.63;16.95;;;;;;;5.20;95.83;99807.25;1727192;83;25575;-48
2022/11/16 00:14:34;;;;;;;38.58;17.15;;;;;;;5.21;95.87;99804.30;1727234;83;25634;-49
2022/11/16 00:17:03;;;;;;;35.88;16.77;;;;;;;5.21;95.84;99808.83;1727297;83;25633;-46
2022/11/16 00:19:30;;;;;;;38.67;16.70;;;;;;;5.20;95.83;99804.02;1727217;82;25472;-48
2022/11/16 00:21:56;;;;;;;37.05;17.10;;;;;;;5.21;95.83;99809.66;1727200;83;27969;-47
2022/11/16 00:24:24;;;;;;;38.58;17.92;;;;;;;5.17;95.83;99798.44;1727125;83;25552;-47
2022/11/16 00:26:53;;;;;;;40.05;17.77;;;;;;;5.22;95.83;99807.77;1727174;83;25450;-48
2022/11/16 00:29:23;;;;;;;39.45;17.77;;;;;;;5.22;95.83;99803.73;1727150;83;27805;-48
2022/11/16 00:31:52;;;;;;;36.98;17.90;;;;;;;5.23;95.76;99798.64;1727247;83;25398;-48
2022/11/16 00:34:21;;;;;;;33.73;16.97;;;;;;;5.21;95.75;99797.59;1727321;83;27124;-48
2022/11/16 00:36:48;;;;;;;35.03;16.05;;;;;;;5.22;95.77;99795.70;1727326;83;25453;-48
2022/11/16 00:39:17;;;;;;;35.45;17.05;;;;;;;5.23;95.79;99799.98;1727221;83;25436;-48
2022/11/16 00:41:45;;;;;;;37.73;17.07;;;;;;;5.21;95.81;99796.25;1727412;83;25606;-48
2022/11/16 00:44:11;;;;;;;34.58;15.63;;;;;;;5.22;95.87;99789.78;1727195;83;25416;-48
2022/11/16 00:46:39;;;;;;;33.05;16.37;;;;;;;5.22;95.83;99790.33;1727196;81;27323;-48
2022/11/16 00:49:06;;;;;;;33.10;16.70;;;;;;;5.22;95.78;99795.70;1727133;83;27203;-48
2022/11/16 00:51:35;;;;;;;33.35;15.70;;;;;;;5.21;95.75;99798.11;1727129;83;25388;-48
2022/11/16 00:54:05;;;;;;;34.75;16.73;;;;;;;5.22;95.74;99798.38;1727312;83;25918;-48
2022/11/16 00:56:31;;;;;;;31.57;15.90;;;;;;;5.20;95.71;99789.27;1727313;82;25693;-48
2022/11/16 00:58:58;;;;;;;33.80;15.48;;;;;;;5.20;95.75;99786.59;1727177;83;27320;-48
2022/11/16 01:01:24;;;;;;;31.80;15.28;;;;;;;5.21;95.72;99787.38;1727060;83;25543;-47
2022/11/16 01:03:51;;;;;;;34.45;15.65;;;;;;;5.20;95.74;99781.23;1727172;83;25668;-48
2022/11/16 01:06:17;;;;;;;31.15;15.38;;;;;;;5.20;95.76;99778.55;1727136;83;25572;-48
2022/11/16 01:08:45;;;;;;;29.05;14.20;;;;;;;5.22;95.72;99784.42;1727055;83;25656;-48
2022/11/16 01:14:07;;;;;;;31.15;14.28;;;;;;;5.23;95.72;99783.89;1727069;83;27163;-48
2022/11/16 01:16:34;;;;;;;26.45;13.10;;;;;;;5.21;95.71;99781.50;1727141;83;25433;-48
2022/11/16 01:19:02;;;;;;;31.70;15.00;;;;;;;5.22;95.66;99784.42;1727107;83;25640;-49
2022/11/16 01:21:30;;;;;;;32.73;15.00;;;;;;;5.20;95.66;99774.53;1727219;83;25199;-47
2022/11/16 01:23:57;;;;;;;28.42;13.90;;;;;;;5.21;95.68;99777.48;1727121;83;27441;-49
2022/11/16 01:26:24;;;;;;;28.75;14.47;;;;;;;5.21;95.71;99785.52;1726605;83;25672;-49
2022/11/16 01:28:51;;;;;;;30.75;15.03;;;;;;;5.21;95.70;99787.38;1726501;82;25790;-47
2022/11/16 01:31:19;;;;;;;28.95;15.25;;;;;;;5.21;95.66;99780.68;1726146;83;25669;-48
2022/11/16 01:33:45;;;;;;;34.23;15.20;;;;;;;5.20;95.64;99781.23;1726332;83;25546;-48
2022/11/16 01:36:14;;;;;;;29.48;15.23;;;;;;;5.20;95.63;99778.55;1725858;83;27326;-47
2022/11/16 01:38:44;;;;;;;29.75;15.93;;;;;;;5.22;95.64;99778.27;1726318;83;25725;-48
2022/11/16 01:41:18;;;;;;;31.75;15.75;;;;;;;5.21;95.62;99775.31;1726765;82;25484;-47
2022/11/16 01:44:05;;;;;;;35.43;17.75;;;;;;;5.21;95.69;99769.43;1727095;83;25666;-48
2022/11/16 01:46:33;;;;;;;29.57;15.25;;;;;;;5.22;95.64;99756.81;1727158;83;25442;-47
2022/11/16 01:49:07;;;;;;;30.40;15.18;;;;;;;5.20;95.62;99758.98;1727132;83;27488;-47
2022/11/16 01:51:35;;;;;;;29.55;14.68;;;;;;;5.19;95.65;99753.36;1727103;82;25668;-48
2022/11/16 01:54:06;;;;;;;27.95;14.45;;;;;;;5.19;95.63;99745.31;1727137;83;25464;-48
2022/11/16 01:56:36;;;;;;;31.90;16.30;;;;;;;5.18;95.52;99744.52;1727101;83;26199;-48
2022/11/16 01:59:04;;;;;;;32.63;16.87;;;;;;;5.18;95.42;99743.73;1727169;83;25479;-47
2022/11/16 02:01:31;;;;;;;34.45;17.92;;;;;;;5.16;95.40;99744.54;1727105;83;28075;-47
2022/11/16 02:03:59;;;;;;;34.30;16.73;;;;;;;5.15;95.44;99746.43;1726962;83;25505;-48
2022/11/16 02:06:34;;;;;;;30.68;16.48;;;;;;;5.16;95.49;99738.66;1727130;83;25403;-48
2022/11/16 02:12:44;;;;;;;28.55;15.80;;;;;;;5.14;95.43;99728.77;1712248;83;25475;-48
2022/11/16 02:15:22;;;;;;;32.23;15.68;;;;;;;5.12;95.43;99726.09;1675532;84;27391;-48
2022/11/16 02:18:14;;;;;;;30.90;16.75;;;;;;;5.10;95.39;99725.05;1652315;85;25574;-47
2022/11/16 02:21:13;;;;;;;29.02;15.45;;;;;;;5.10;95.49;99718.89;1675276;85;25655;-48
2022/11/16 02:24:12;;;;;;;29.45;14.70;;;;;;;5.09;95.48;99717.28;1675365;85;25657;-48
2022/11/16 02:27:08;;;;;;;27.30;14.53;;;;;;;5.07;95.47;99711.42;1675009;85;25460;-48
2022/11/16 02:29:42;;;;;;;27.85;14.78;;;;;;;5.06;95.45;99714.65;1674896;85;27377;-48
2022/11/16 02:32:26;;;;;;;28.70;14.85;;;;;;;5.04;95.53;99715.48;1675202;85;25573;-48
2022/11/16 02:35:03;;;;;;;29.10;14.10;;;;;;;5.02;95.60;99713.09;1675278;85;25567;-49
2022/11/16 02:37:35;;;;;;;29.35;15.10;;;;;;;5.03;95.69;99714.66;1674212;85;25629;-49
2022/11/16 02:40:08;;;;;;;30.77;15.03;;;;;;;5.02;95.65;99710.92;1675376;85;25630;-48
2022/11/16 02:42:49;;;;;;;33.20;16.40;;;;;;;5.02;95.62;99707.72;1675286;85;27343;-47
2022/11/16 02:45:26;;;;;;;28.77;14.03;;;;;;;5.01;95.62;99708.00;1675141;85;25648;-48
2022/11/16 02:47:58;;;;;;;30.77;14.98;;;;;;;5.01;95.69;99709.34;1675379;85;25596;-48
2022/11/16 02:50:27;;;;;;;28.65;14.15;;;;;;;5.00;95.76;99703.72;1675260;85;25727;-48
2022/11/16 02:52:54;;;;;;;28.57;14.00;;;;;;;5.01;95.72;99709.34;1708823;83;25586;-47
2022/11/16 02:55:23;;;;;;;27.85;14.60;;;;;;;5.01;95.71;99706.67;1711915;83;26892;-48
2022/11/16 02:57:56;;;;;;;30.30;14.95;;;;;;;5.00;95.78;99700.48;1712034;83;25587;-49
2022/11/16 03:00:28;;;;;;;29.92;14.53;;;;;;;5.00;95.82;99691.11;1711944;83;25406;-47
2022/11/16 03:03:23;;;;;;;30.55;15.75;;;;;;;5.02;95.81;99692.16;1709760;83;25822;-48
2022/11/16 03:06:04;;;;;;;27.98;14.98;;;;;;;5.03;95.78;99696.45;1711554;83;25425;-47
2022/11/16 03:08:38;;;;;;;33.45;14.35;;;;;;;5.02;95.81;99693.50;1714240;81;27574;-47
2022/11/16 03:13:59;;;;;;;29.37;15.20;;;;;;;5.03;95.79;99692.43;1727238;83;25572;-46
2022/11/16 03:16:34;;;;;;;29.48;15.30;;;;;;;5.01;95.76;99686.56;1727235;82;26267;-47
2022/11/16 03:19:05;;;;;;;31.75;15.50;;;;;;;5.02;95.77;99686.80;1726629;83;25441;-48
2022/11/16 03:21:55;;;;;;;27.32;14.60;;;;;;;5.03;95.78;99685.73;1726314;83;27310;-47
2022/11/16 03:24:22;;;;;;;32.93;15.88;;;;;;;5.03;95.72;99681.70;1727270;83;25555;-47
2022/11/16 03:27:25;;;;;;;32.28;15.80;;;;;;;5.02;95.66;99679.58;1727236;83;25394;-48
2022/11/16 03:30:13;;;;;;;36.28;16.52;;;;;;;5.02;95.60;99678.23;1727245;83;25560;-47
2022/11/16 03:33:03;;;;;;;31.20;15.55;;;;;;;5.01;95.63;99684.67;1726891;83;25457;-49
2022/11/16 03:36:03;;;;;;;32.53;15.95;;;;;;;5.00;95.78;99679.05;1725894;83;27423;-47
2022/11/16 03:38:33;;;;;;;34.73;16.55;;;;;;;5.01;95.77;99678.52;1727177;82;25601;-49
2022/11/16 03:41:04;;;;;;;38.65;17.12;;;;;;;5.01;95.79;99681.20;1727224;82;25570;-49
2022/11/16 03:43:33;;;;;;;34.95;15.65;;;;;;;5.00;95.84;99680.38;1727160;82;26164;-48
2022/11/16 03:46:00;;;;;;;33.08;16.35;;;;;;;5.01;95.86;99679.86;1727262;83;25452;-48
2022/11/16 03:48:39;;;;;;;39.18;17.40;;;;;;;5.01;95.84;99677.18;1727170;83;27359;-47
2022/11/16 03:51:10;;;;;;;34.20;17.80;;;;;;;5.03;95.83;99668.30;1727390;83;25400;-48
2022/11/16 03:53:37;;;;;;;35.20;17.10;;;;;;;5.03;95.80;99658.92;1727271;82;25434;-48
2022/11/16 03:56:06;;;;;;;34.60;17.17;;;;;;;5.02;95.77;99658.66;1727197;82;25688;-47
2022/11/16 03:58:32;;;;;;;38.20;18.53;;;;;;;5.03;95.82;99655.69;1727549;82;25641;-48
2022/11/16 04:00:58;;;;;;;37.03;18.77;;;;;;;5.05;95.82;99658.09;1727229;82;27164;-47
2022/11/16 04:03:25;;;;;;;35.17;16.45;;;;;;;5.04;95.78;99651.15;1727136;83;25720;-48
2022/11/16 04:25:27;;;;;;;34.90;17.90;;;;;;;5.05;95.84;99653.52;1727150;83;25383;-47
2022/11/16 04:28:12;;;;;;;38.60;17.77;;;;;;;5.05;95.89;99646.02;1696337;83;27411;-47
2022/11/16 04:39:00;;;;;;;38.90;18.70;;;;;;;5.07;95.91;99649.77;1701066;83;25403;-47
2022/11/16 04:44:11;;;;;;;41.98;18.77;;;;;;;5.07;95.99;99649.21;1727140;83;27242;-49
2022/11/16 04:49:21;;;;;;;38.63;19.90;;;;;;;5.08;96.10;99646.01;1727197;83;26250;-48
2022/11/16 04:51:47;;;;;;;39.42;18.73;;;;;;;5.09;96.14;99642.22;1727221;82;32757;-48
2022/11/16 04:54:13;;;;;;;43.83;20.00;;;;;;;5.09;96.14;99643.04;1727170;83;28076;-48
2022/11/16 04:56:39;;;;;;;43.30;19.55;;;;;;;5.10;96.12;99631.22;1727020;82;27207;-49
2022/11/16 04:59:06;;;;;;;40.38;20.08;;;;;;;5.11;96.15;99627.45;1727163;83;25636;-49
2022/11/16 05:04:17;;;;;;;43.52;19.45;;;;;;;5.13;96.14;99625.84;1727305;83;25422;-51
2022/11/16 05:06:43;;;;;;;40.15;19.80;;;;;;;5.12;96.04;99623.67;1696248;83;27291;-48
2022/11/16 05:09:10;;;;;;;46.25;19.73;;;;;;;5.11;96.08;99630.14;1725144;82;25711;-47
2022/11/16 05:11:36;;;;;;;45.10;19.37;;;;;;;5.11;96.09;99632.82;1716095;83;25468;-48
2022/11/16 05:14:04;;;;;;;43.70;19.70;;;;;;;5.12;96.13;99636.30;1716066;83;25673;-48
2022/11/16 05:16:32;;;;;;;37.87;18.30;;;;;;;5.12;96.23;99639.76;1716390;83;25625;-49
2022/11/16 05:21:43;;;;;;;38.00;18.17;;;;;;;5.14;96.32;99636.27;1715976;83;25690;-49
2022/11/16 05:26:55;;;;;;;39.63;18.20;;;;;;;5.16;96.35;99639.45;1716147;83;25621;-48
2022/11/16 05:29:21;;;;;;;39.23;18.87;;;;;;;5.16;96.29;99639.45;1716184;83;25557;-47
2022/11/16 05:31:47;;;;;;;41.05;18.35;;;;;;;5.18;96.33;99633.81;1716085;83;27337;-47
2022/11/16 05:34:14;;;;;;;38.70;19.25;;;;;;;5.17;96.32;99637.56;1715971;83;25794;-47
2022/11/16 05:36:40;;;;;;;40.92;17.98;;;;;;;5.18;96.26;99639.95;1716057;83;25623;-47
2022/11/16 05:39:06;;;;;;;44.83;19.37;;;;;;;5.18;96.28;99639.95;1716105;83;26301;-47
2022/11/16 05:41:33;;;;;;;41.37;18.62;;;;;;;5.20;96.26;99640.46;1716068;83;25456;-49
2022/11/16 05:43:59;;;;;;;40.23;18.17;;;;;;;5.19;96.20;99638.88;1716033;83;27411;-48
2022/11/16 05:46:25;;;;;;;38.92;17.32;;;;;;;5.20;96.21;99638.33;1715958;83;25641;-48
2022/11/16 05:48:51;;;;;;;39.35;18.37;;;;;;;5.20;96.15;99635.09;1716023;83;25556;-48
2022/11/16 05:51:18;;;;;;;36.75;17.95;;;;;;;5.19;96.11;99639.41;1715982;83;25612;-48
2022/11/16 05:53:45;;;;;;;34.13;17.25;;;;;;;5.18;96.12;99643.98;1716049;83;25394;-48
2022/11/16 05:56:13;;;;;;;39.55;17.90;;;;;;;5.19;96.18;99641.56;1716066;83;27248;-48
2022/11/16 05:58:42;;;;;;;37.90;17.40;;;;;;;5.19;96.16;99645.59;1716170;83;25565;-48
2022/11/16 06:01:09;;;;;;;34.80;17.27;;;;;;;5.19;96.18;99644.77;1716289;83;25637;-48
2022/11/16 06:03:36;;;;;;;35.92;17.62;;;;;;;5.18;96.14;99638.62;1716027;83;25696;-48
2022/11/16 06:06:04;;;;;;;40.50;18.45;;;;;;;5.18;96.11;99643.19;1716054;83;25390;-49
2022/11/16 06:08:31;;;;;;;33.95;16.15;;;;;;;5.19;96.19;99644.77;1716045;83;27327;-48
2022/11/16 06:11:06;;;;;;;35.65;17.65;;;;;;;5.19;96.20;99646.11;1748574;81;25413;-48
2022/11/16 06:13:34;;;;;;;32.63;16.32;;;;;;;5.19;96.20;99640.75;1757821;81;25602;-49
2022/11/16 06:16:03;;;;;;;34.45;17.37;;;;;;;5.19;96.19;99638.88;1757749;81;25672;-50
2022/11/16 06:18:30;;;;;;;43.13;20.73;;;;;;;5.20;96.18;99637.78;1758028;81;25627;-47
2022/11/16 06:20:57;;;;;;;39.53;18.45;;;;;;;5.20;96.21;99631.08;1757789;80;27550;-49
2022/11/16 06:23:23;;;;;;;40.63;20.30;;;;;;;5.20;96.20;99635.09;1757689;81;25388;-49
2022/11/16 06:25:54;;;;;;;33.78;18.48;;;;;;;5.21;96.13;99634.03;1757784;81;25580;-46
2022/11/16 06:28:22;;;;;;;41.65;19.50;;;;;;;5.22;96.09;99642.86;1757734;81;25695;-48
2022/11/16 06:30:49;;;;;;;34.90;17.70;;;;;;;5.21;96.17;99635.89;1757811;81;25418;-46
2022/11/16 06:33:17;;;;;;;37.05;18.60;;;;;;;5.21;96.23;99644.75;1757755;81;26552;-47
2022/11/16 06:35:44;;;;;;;39.65;18.73;;;;;;;5.21;96.23;99645.27;1757653;81;25643;-48
2022/11/16 06:38:17;;;;;;;37.45;18.02;;;;;;;5.22;96.28;99653.58;1757708;81;25541;-48
2022/11/16 06:40:40;;;;;;;33.88;17.30;;;;;;;5.21;96.31;99651.98;1756935;81;25631;-48
2022/11/16 06:43:06;;;;;;;35.80;16.97;;;;;;;5.22;96.44;99650.35;1757790;81;25490;-49
2022/11/16 06:45:33;;;;;;;31.97;16.85;;;;;;;5.23;96.52;99649.27;1757722;81;29609;-49
2022/11/16 06:47:59;;;;;;;34.10;16.62;;;;;;;5.26;96.58;99655.14;1757644;81;25869;-49
2022/11/16 06:50:25;;;;;;;35.58;17.70;;;;;;;5.27;96.58;99653.52;1757704;81;25467;-49
2022/11/16 06:52:52;;;;;;;40.17;18.25;;;;;;;5.29;96.61;99652.67;1757718;81;25714;-45
2022/11/16 06:55:19;;;;;;;33.20;15.68;;;;;;;5.31;96.60;99645.16;1757808;81;25381;-48
2022/11/16 06:57:46;;;;;;;32.67;16.77;;;;;;;5.32;96.65;99645.95;1757685;81;27331;-47
2022/11/16 07:00:15;;;;;;;34.55;16.10;;;;;;;5.33;96.65;99648.88;1757655;81;25501;-46
2022/11/16 07:02:41;;;;;;;34.75;17.17;;;;;;;5.35;96.60;99652.08;1757702;81;25602;-47
2022/11/16 07:05:08;;;;;;;34.33;16.97;;;;;;;5.35;96.58;99648.84;1757390;81;25631;-47
2022/11/16 07:07:35;;;;;;;35.73;17.48;;;;;;;5.36;96.57;99653.14;1757721;81;25381;-48
2022/11/16 07:10:03;;;;;;;33.40;16.75;;;;;;;5.36;96.54;99642.94;1746773;81;27297;-48
2022/11/16 07:12:30;;;;;;;31.37;15.65;;;;;;;5.39;96.68;99639.67;1715909;83;25675;-48
2022/11/16 07:14:56;;;;;;;34.78;16.42;;;;;;;5.39;96.67;99635.66;1715450;83;25694;-48
2022/11/16 07:17:22;;;;;;;35.52;17.45;;;;;;;5.40;96.63;99634.03;1715289;83;25585;-48
2022/11/16 07:19:48;;;;;;;34.92;16.37;;;;;;;5.41;96.63;99639.66;1732617;77;25655;-48
2022/11/16 07:22:14;;;;;;;34.03;17.57;;;;;;;5.42;96.65;99635.08;1751620;81;27362;-50
2022/11/16 07:24:40;;;;;;;35.40;18.60;;;;;;;5.42;96.70;99635.87;1751945;81;33475;-50
2022/11/16 07:27:07;;;;;;;36.98;18.02;;;;;;;5.44;96.76;99632.90;1751486;81;25984;-48
2022/11/16 07:29:34;;;;;;;35.80;17.23;;;;;;;5.46;96.85;99632.61;1751141;81;25685;-48
2022/11/16 07:32:00;;;;;;;33.75;17.40;;;;;;;5.46;96.89;99633.95;1752648;81;25408;-48
2022/11/16 07:34:26;;;;;;;37.30;18.00;;;;;;;5.48;96.82;99635.80;1752614;81;29490;-49
2022/11/16 07:36:52;;;;;;;34.73;17.07;;;;;;;5.47;96.76;99629.64;1752569;81;33085;-48
2022/11/16 07:39:20;;;;;;;33.73;17.85;;;;;;;5.47;96.80;99626.95;1752672;81;29137;-50
2022/11/16 07:41:49;;;;;;;32.42;16.97;;;;;;;5.49;96.87;99628.02;1752630;81;25854;-48
2022/11/16 07:44:15;;;;;;;33.20;17.60;;;;;;;5.49;96.77;99623.98;1752663;81;25645;-49
2022/11/16 07:46:41;;;;;;;34.20;17.82;;;;;;;5.50;96.71;99627.72;1752631;81;29636;-49
2022/11/16 07:49:15;;;;;;;37.60;18.45;;;;;;;5.51;96.77;99625.27;1752610;81;25535;-49
2022/11/16 07:51:42;;;;;;;34.85;17.45;;;;;;;5.51;96.83;99627.17;1752679;81;25476;-49
2022/11/16 07:54:13;;;;;;;36.05;18.35;;;;;;;5.51;96.81;99624.48;1752579;81;25698;-49
2022/11/16 07:56:40;;;;;;;31.12;16.82;;;;;;;5.50;96.69;99625.04;1752687;81;25460;-47
2022/11/16 07:59:08;;;;;;;34.65;18.35;;;;;;;5.50;96.73;99627.72;1752601;81;28090;-48
2022/11/16 08:01:34;;;;;;;35.25;16.80;;;;;;;5.50;96.82;99625.04;1752686;81;25355;-50
2022/11/16 08:04:01;;;;;;;35.55;17.70;;;;;;;5.51;96.97;99618.57;1752838;81;25433;-49
2022/11/16 08:06:31;;;;;;;36.23;16.82;;;;;;;5.51;97.00;99616.44;1752761;81;27863;-48
2022/11/16 08:08:59;;;;;;;32.30;16.27;;;;;;;5.52;96.94;99619.39;1752825;81;25696;-49
2022/11/16 08:11:27;;;;;;;40.90;18.52;;;;;;;5.50;96.86;99618.34;1752816;81;27327;-49
2022/11/16 08:13:53;;;;;;;33.08;17.27;;;;;;;5.49;96.76;99619.41;1752710;81;25540;-49
2022/11/16 08:16:21;;;;;;;38.08;17.70;;;;;;;5.49;96.83;99614.05;1752736;81;25564;-49
2022/11/16 08:18:48;;;;;;;30.65;17.50;;;;;;;5.48;96.69;99604.95;1752841;81;25617;-49
2022/11/16 08:21:17;;;;;;;32.63;16.87;;;;;;;5.47;96.85;99614.09;1752725;81;25385;-49
2022/11/16 08:23:45;;;;;;;;;;;;;;;5.46;97.01;99613.28;1755377;81;27410;-49
2022/11/16 08:26:16;;;;;;;29.95;16.20;;;;;;;5.48;97.20;99608.97;1752706;81;25569;-49
2022/11/16 08:28:46;;;;;;;36.98;20.37;;;;;;;5.48;97.34;99607.08;1752800;81;25398;-49
2022/11/16 08:31:17;;;;;;;36.00;18.23;;;;;;;5.49;97.45;99607.34;1752781;81;25656;-49
2022/11/16 08:33:44;;;;;;;31.42;15.93;;;;;;;5.51;97.59;99603.81;1752812;81;25645;-48
2022/11/16 08:36:16;;;;;;;29.45;15.20;;;;;;;5.51;97.43;99613.20;1752767;81;27363;-49
2022/11/16 08:38:42;;;;;;;28.57;15.78;;;;;;;5.49;97.27;99607.34;1752368;81;25547;-48
2022/11/16 08:41:08;;;;;;;27.80;15.35;;;;;;;5.50;97.37;99611.63;1752723;81;25548;-49
2022/11/16 08:43:34;;;;;;;27.75;15.48;;;;;;;5.52;97.65;99620.17;1752677;81;25611;-50
2022/11/16 08:46:01;;;;;;;28.20;15.00;;;;;;;5.54;97.69;99613.18;1752732;81;25614;-49
2022/11/16 08:48:27;;;;;;;27.13;14.25;;;;;;;5.53;97.52;99615.59;1752729;81;27434;-49
2022/11/16 08:50:53;;;;;;;28.67;15.03;;;;;;;5.53;97.50;99621.75;1752615;81;25451;-49
2022/11/16 08:53:19;;;;;;;24.67;12.40;;;;;;;5.54;97.71;99614.52;1752722;81;25437;-48
2022/11/16 08:55:45;;;;;;;23.80;12.93;;;;;;;5.54;97.70;99619.33;1752696;81;25663;-49
2022/11/16 08:58:12;;;;;;;23.05;13.25;;;;;;;5.54;97.80;99619.33;1752717;81;25526;-48
2022/11/16 09:00:38;;;;;;;21.15;12.23;;;;;;;5.56;97.86;99611.78;1752665;81;27426;-49
2022/11/16 09:03:04;;;;;;;20.10;12.15;;;;;;;5.57;97.68;99617.97;1752634;81;25842;-48
2022/11/16 09:05:31;;;;;;;23.62;12.35;;;;;;;5.57;97.45;99620.65;1752774;81;25463;-50
2022/11/16 09:07:57;;;;;;;16.90;9.60;;;;;;;5.53;97.22;99612.91;1752750;81;25679;-49
2022/11/16 09:10:24;;;;;;;18.02;9.48;;;;;;;5.50;97.24;99612.97;1752759;81;25613;-49
2022/11/16 09:12:52;;;;;;;15.05;9.50;;;;;;;5.50;97.08;99611.63;1747633;82;29581;-50
2022/11/16 09:15:19;;;;;;;16.70;9.55;;;;;;;5.47;97.21;99612.20;1747614;82;25753;-50
2022/11/16 09:17:46;;;;;;;16.75;9.60;;;;;;;5.46;97.24;99608.47;1747659;82;25560;-49
2022/11/16 09:20:13;;;;;;;17.60;9.00;;;;;;;5.46;97.26;99610.59;1746506;82;25700;-49
2022/11/16 09:22:39;;;;;;;17.57;9.68;;;;;;;5.43;97.30;99607.97;1741933;82;25616;-49
2022/11/16 09:25:08;;;;;;;16.27;9.53;;;;;;;5.48;97.66;99614.33;1741891;82;27385;-48
2022/11/16 09:27:35;;;;;;;16.45;9.88;;;;;;;5.52;98.00;99616.70;1741859;82;25765;-48
2022/11/16 09:30:02;;;;;;;19.23;9.75;;;;;;;5.56;98.05;99613.68;1741815;82;25469;-49
2022/11/16 09:32:28;;;;;;;16.07;9.70;;;;;;;5.58;98.20;99605.61;1741761;82;25704;-48
2022/11/16 09:34:54;;;;;;;14.35;9.10;;;;;;;5.60;98.07;99607.97;1741795;82;25537;-48
2022/11/16 09:37:21;;;;;;;15.93;9.95;;;;;;;5.63;98.08;99608.73;1741773;82;27378;-48
2022/11/16 09:39:47;;;;;;;16.25;9.78;;;;;;;5.67;98.25;99616.47;1741699;82;25579;-49
2022/11/16 09:42:34;;;;;;;16.25;9.68;;;;;;;5.72;98.54;99614.23;1741833;82;25497;-50
2022/11/16 09:45:21;;;;;;;15.32;9.05;;;;;;;5.77;98.69;99608.78;1741449;82;25647;-47
2022/11/16 09:47:58;;;;;;;13.70;8.55;;;;;;;5.83;98.67;99607.62;1741891;82;25464;-48
2022/11/16 09:50:51;;;;;;;13.25;7.90;;;;;;;5.86;98.52;99593.61;1741632;82;27399;-48
2022/11/16 09:53:32;;;;;;;15.63;8.48;;;;;;;5.89;98.39;99592.22;1741776;81;25494;-48
2022/11/16 09:56:12;;;;;;;15.85;8.23;;;;;;;5.92;98.21;99588.39;1741810;82;25383;-48
2022/11/16 09:58:47;;;;;;;16.87;9.93;;;;;;;5.96;98.39;99588.66;1741793;82;25677;-47
2022/11/16 10:01:52;;;;;;;13.55;8.43;;;;;;;6.00;98.19;99588.86;1741633;81;25563;-49
2022/11/16 10:04:35;;;;;;;12.82;8.13;;;;;;;6.03;98.23;99589.06;1741811;82;27298;-48
2022/11/16 10:07:19;;;;;;;14.73;8.20;;;;;;;6.06;98.04;99581.77;1741739;82;25463;-48
2022/11/16 10:09:47;;;;;;;12.28;7.67;;;;;;;6.07;97.97;99582.00;1740981;80;25675;-49
2022/11/16 10:12:35;;;;;;;12.75;7.70;;;;;;;6.11;97.85;99576.83;1741764;81;25622;-48
2022/11/16 10:15:14;;;;;;;13.10;7.60;;;;;;;6.12;97.44;99577.88;1742127;82;25401;-48
2022/11/16 10:17:58;;;;;;;11.22;7.35;;;;;;;6.13;97.27;99575.98;1741033;81;27342;-48
2022/11/16 10:20:50;;;;;;;13.65;7.65;;;;;;;6.16;97.37;99578.08;1741438;81;25875;-47
2022/11/16 10:23:42;;;;;;;10.82;6.83;;;;;;;6.15;97.00;99571.12;1741766;82;25413;-48
2022/11/16 10:26:32;;;;;;;12.37;6.90;;;;;;;6.16;96.84;99570.02;1741810;82;25911;-48
2022/11/16 10:29:09;;;;;;;12.70;7.35;;;;;;;6.17;96.84;99564.91;1741850;82;25486;-48
2022/11/16 10:32:15;;;;;;;14.25;6.58;;;;;;;6.19;96.82;99572.12;1741777;82;27451;-48
2022/11/16 10:34:52;;;;;;;14.15;8.70;;;;;;;6.17;96.43;99565.70;1741588;82;25918;-51
2022/11/16 10:37:22;;;;;;;12.65;7.28;;;;;;;6.16;96.24;99557.41;1741846;82;25552;-48
2022/11/16 10:39:54;;;;;;;10.40;6.47;;;;;;;6.14;95.88;99558.23;1741824;82;25584;-48
2022/11/16 10:42:39;;;;;;;12.95;8.28;;;;;;;6.11;95.64;99553.48;1741851;82;25396;-47
2022/11/16 10:45:19;;;;;;;10.08;6.20;;;;;;;6.09;95.49;99548.14;1741827;82;27316;-49
2022/11/16 10:48:00;;;;;;;10.28;7.37;;;;;;;6.07;95.56;99547.65;1741841;82;25632;-49
2022/11/16 10:50:40;;;;;;;10.50;6.17;;;;;;;6.07;95.66;99548.44;1740988;81;25438;-48
2022/11/16 10:53:27;;;;;;;8.40;5.70;;;;;;;6.07;95.70;99547.65;1740498;81;25863;-48
2022/11/16 10:56:19;;;;;;;9.63;6.12;;;;;;;6.07;95.56;99545.75;1741803;82;25615;-47
2022/11/16 10:58:58;;;;;;;8.18;5.35;;;;;;;6.04;95.04;99552.27;1732949;82;27496;-49
2022/11/16 11:01:50;;;;;;;7.58;5.15;;;;;;;6.01;94.81;99552.84;1738692;82;25546;-48
2022/11/16 11:04:23;;;;;;;7.95;5.50;;;;;;;5.98;94.56;99555.59;1741729;82;25403;-49
2022/11/16 11:07:00;;;;;;;8.85;5.72;;;;;;;5.95;94.48;99558.83;1741776;82;25702;-49
2022/11/16 11:09:36;;;;;;;8.08;6.00;;;;;;;5.91;94.43;99555.95;1738991;82;25505;-48
2022/11/16 11:12:36;;;;;;;10.70;6.55;;;;;;;5.91;94.64;99561.31;1741848;82;27881;-47
2022/11/16 11:15:23;;;;;;;9.58;5.92;;;;;;;5.94;95.04;99557.23;1741735;82;25596;-47
2022/11/16 11:18:11;;;;;;;7.95;5.85;;;;;;;5.99;95.46;99547.77;1741731;82;25602;-49
2022/11/16 11:20:40;;;;;;;8.58;5.25;;;;;;;6.06;95.57;99542.02;1741664;81;25619;-49
2022/11/16 11:23:24;;;;;;;7.30;4.75;;;;;;;6.10;95.21;99544.37;1752599;81;25645;-49
2022/11/16 11:25:57;;;;;;;6.72;5.05;;;;;;;6.12;94.88;99545.66;1751804;81;27674;-48
2022/11/16 11:28:31;;;;;;;5.95;4.22;;;;;;;6.12;94.63;99548.89;1752358;81;25611;-49
2022/11/16 11:31:05;;;;;;;6.85;4.25;;;;;;;6.14;94.39;99552.08;1752357;81;25484;-48
2022/11/16 11:33:51;;;;;;;4.25;3.85;;;;;;;6.11;94.05;99549.45;1752314;81;25684;-48
2022/11/16 11:36:24;;;;;;;5.87;4.12;;;;;;;6.11;93.81;99556.16;1752554;81;25646;-48
2022/11/16 11:39:04;;;;;;;5.45;4.08;;;;;;;6.10;93.64;99560.48;1752407;81;27352;-49
2022/11/16 11:41:39;;;;;;;6.72;4.80;;;;;;;6.07;93.66;99557.05;1739708;81;25646;-50
2022/11/16 11:44:15;;;;;;;4.55;3.90;;;;;;;6.05;93.64;99560.02;1752609;81;25378;-48
2022/11/16 11:46:55;;;;;;;5.30;3.60;;;;;;;6.05;93.53;99559.23;1752548;81;25667;-48
2022/11/16 11:49:33;;;;;;;6.83;4.25;;;;;;;6.03;93.49;99556.03;1752689;81;25456;-49
2022/11/16 11:52:11;;;;;;;6.42;3.65;;;;;;;5.99;93.61;99558.52;1752533;81;27307;-51
2022/11/16 11:54:46;;;;;;;5.28;3.50;;;;;;;5.96;93.47;99558.57;1751278;81;27201;-49
2022/11/16 11:57:20;;;;;;;4.85;3.72;;;;;;;5.94;93.68;99558.57;1752594;81;25625;-49
2022/11/16 11:59:51;;;;;;;6.28;4.50;;;;;;;5.94;93.69;99561.26;1742114;82;26166;-48
2022/11/16 12:02:38;;;;;;;5.42;3.40;;;;;;;5.89;93.68;99550.61;1752618;81;25634;-50
2022/11/16 12:05:28;;;;;;;5.30;4.15;;;;;;;5.88;93.45;99557.09;1751816;81;27403;-47
2022/11/16 12:08:00;;;;;;;3.90;3.27;;;;;;;5.84;93.42;99554.73;1752416;81;27212;-48
2022/11/16 12:10:47;;;;;;;4.28;3.20;;;;;;;5.81;93.43;99556.12;1751068;81;25544;-51
2022/11/16 12:13:40;;;;;;;3.95;3.55;;;;;;;5.78;93.53;99550.00;1742266;82;25684;-48
2022/11/16 12:16:33;;;;;;;5.03;3.27;;;;;;;5.75;93.43;99557.30;1741312;82;25434;-49
2022/11/16 12:19:16;;;;;;;4.35;3.62;;;;;;;5.69;93.08;99561.95;1742168;82;27333;-48
2022/11/16 12:22:00;;;;;;;4.28;2.83;;;;;;;5.58;92.66;99568.57;1742063;82;25445;-48
2022/11/16 12:24:55;;;;;;;2.58;2.33;;;;;;;5.49;92.22;99565.77;1742200;81;25410;-47
2022/11/16 12:27:37;;;;;;;5.97;4.28;;;;;;;5.37;92.07;99559.51;1741993;82;25622;-49
2022/11/16 12:30:23;;;;;;;3.98;2.33;;;;;;;5.29;92.28;99560.71;1677835;85;25707;-48
2022/11/16 12:33:00;;;;;;;2.27;1.80;;;;;;;5.20;92.15;99568.63;1677797;85;27437;-48
2022/11/16 12:35:47;;;;;;;2.83;2.52;;;;;;;5.10;92.20;99563.41;1677420;85;25479;-49
2022/11/16 12:38:50;;;;;;;5.85;3.08;;;;;;;5.03;92.33;99565.89;1677777;85;25602;-51
2022/11/16 12:41:42;;;;;;;2.52;2.33;;;;;;;4.97;92.51;99567.59;1677767;85;25677;-48
2022/11/16 12:44:11;;;;;;;3.37;2.67;;;;;;;4.92;92.60;99571.16;1677906;85;25554;-48
2022/11/16 12:46:51;;;;;;;2.92;2.42;;;;;;;4.86;92.64;99568.28;1677866;85;27410;-48